createdAt,value
2018-08-04T00:00:11.996Z,80.91
2018-08-04T00:02:39.717Z,80.73
2018-08-04T00:05:09.069Z,81.55
2018-08-04T00:07:37.325Z,80.92
2018-08-04T00:10:12.901Z,81.42
2018-08-04T00:12:40.948Z,81.49
2018-08-04T00:15:08.733Z,81.27
2018-08-04T00:17:36.916Z,82.14
2018-08-04T00:20:04.833Z,81.35
2018-08-04T00:22:32.545Z,81.79
2018-08-04T00:25:01.388Z,81.43
2018-08-04T00:27:29.104Z,82.36
2018-08-04T00:29:56.817Z,82.48
2018-08-04T00:32:24.552Z,81.64
2018-08-04T00:34:52.248Z,81.30
2018-08-04T00:37:19.972Z,81.83
2018-08-04T00:39:47.672Z,81.28
2018-08-04T00:42:15.387Z,81.43
2018-08-04T00:44:43.072Z,81.63
2018-08-04T00:47:10.792Z,81.93
2018-08-04T00:49:38.511Z,82.68
2018-08-04T00:52:06.298Z,82.07
2018-08-04T00:54:34.012Z,82.24
2018-08-04T00:57:01.712Z,82.02
2018-08-04T00:59:29.446Z,82.21
2018-08-04T01:01:57.191Z,82.09
2018-08-04T01:04:24.935Z,82.78
2018-08-04T01:06:52.672Z,83.11
2018-08-04T01:09:20.427Z,82.78
2018-08-04T01:11:48.279Z,82.04
2018-08-04T01:14:16.020Z,81.84
2018-08-04T01:16:43.752Z,82.09
2018-08-04T01:19:11.512Z,82.00
2018-08-04T01:21:39.248Z,82.22
2018-08-04T01:24:07.008Z,82.46
2018-08-04T01:26:34.728Z,82.13
2018-08-04T01:29:02.433Z,82.32
2018-08-04T01:31:30.266Z,82.47
2018-08-04T01:33:58.012Z,82.86
2018-08-04T01:36:25.689Z,83.03
2018-08-04T01:38:53.415Z,83.31
2018-08-04T01:41:21.153Z,83.16
2018-08-04T01:43:48.845Z,83.56
2018-08-04T01:46:16.584Z,83.15
2018-08-04T01:48:44.280Z,84.16
2018-08-04T01:51:11.996Z,83.68
2018-08-04T01:53:39.744Z,83.25
2018-08-04T01:56:07.480Z,84.13
2018-08-04T01:58:35.183Z,84.94
2018-08-04T02:01:02.952Z,84.80
2018-08-04T02:03:30.661Z,84.29
2018-08-04T02:05:58.380Z,84.29
2018-08-04T02:08:26.298Z,84.38
2018-08-04T02:10:54.041Z,84.85
2018-08-04T02:13:21.876Z,84.70
2018-08-04T02:15:49.612Z,84.50
2018-08-04T02:18:17.329Z,84.41
2018-08-04T02:20:45.055Z,83.87
2018-08-04T02:23:12.764Z,85.17
2018-08-04T02:25:40.465Z,85.00
2018-08-04T02:28:08.200Z,84.77
2018-08-04T02:30:35.949Z,85.47
2018-08-04T02:33:03.699Z,85.27
2018-08-04T02:35:31.439Z,85.32
2018-08-04T02:37:59.182Z,85.07
2018-08-04T02:40:26.993Z,85.41
2018-08-04T02:42:54.708Z,84.68
2018-08-04T02:45:22.438Z,85.52
2018-08-04T02:47:50.216Z,85.11
2018-08-04T02:50:17.977Z,85.87
2018-08-04T02:52:45.717Z,86.17
2018-08-04T02:55:13.455Z,85.92
2018-08-04T02:57:41.167Z,86.74
2018-08-04T03:00:08.922Z,86.78
2018-08-04T03:02:36.693Z,86.54
2018-08-04T03:05:04.712Z,85.69
2018-08-04T03:07:32.432Z,86.65
2018-08-04T03:10:00.172Z,86.58
2018-08-04T03:12:27.871Z,86.99
2018-08-04T03:14:55.572Z,87.07
2018-08-04T03:17:23.352Z,86.56
2018-08-04T03:19:51.072Z,86.98
2018-08-04T03:22:18.802Z,87.37
2018-08-04T03:24:46.594Z,86.68
2018-08-04T03:27:14.338Z,86.88
2018-08-04T03:29:42.076Z,87.26
2018-08-04T03:32:09.795Z,86.61
2018-08-04T03:34:37.531Z,86.66
2018-08-04T03:37:05.309Z,86.53
2018-08-04T03:39:33.010Z,86.16
2018-08-04T03:42:00.746Z,86.08
2018-08-04T03:44:28.460Z,86.06
2018-08-04T03:46:56.176Z,86.29
2018-08-04T03:49:23.896Z,85.96
2018-08-04T03:51:51.632Z,85.37
2018-08-04T03:54:19.324Z,84.89
2018-08-04T03:56:47.026Z,85.11
2018-08-04T03:59:14.770Z,84.39
2018-08-04T04:01:42.445Z,83.82
2018-08-04T04:04:10.134Z,83.33
2018-08-04T04:06:37.935Z,82.94
2018-08-04T04:09:07.689Z,82.27
2018-08-04T04:11:35.409Z,82.01
2018-08-04T04:14:03.248Z,81.45
2018-08-04T04:16:30.952Z,81.53
2018-08-04T04:18:58.841Z,80.62
2018-08-04T04:21:26.553Z,78.75
2018-08-04T04:23:54.273Z,78.89
2018-08-04T04:26:22.011Z,78.23
2018-08-04T04:28:49.758Z,77.24
2018-08-04T04:31:17.431Z,76.58
2018-08-04T04:33:45.136Z,75.82
2018-08-04T04:36:12.875Z,74.59
2018-08-04T04:38:40.577Z,73.61
2018-08-04T04:41:08.303Z,72.57
2018-08-04T04:43:36.063Z,71.49
2018-08-04T04:46:03.803Z,70.08
2018-08-04T04:48:31.584Z,69.03
2018-08-04T04:50:59.296Z,66.08
2018-08-04T04:53:26.985Z,67.39
2018-08-04T04:55:54.699Z,66.25
2018-08-04T04:58:22.472Z,65.17
2018-08-04T05:00:50.199Z,63.64
2018-08-04T05:03:17.920Z,63.17
2018-08-04T05:05:45.657Z,62.79
2018-08-04T05:08:13.393Z,60.59
2018-08-04T05:10:41.124Z,59.78
2018-08-04T05:13:08.897Z,58.44
2018-08-04T05:15:36.675Z,58.80
2018-08-04T05:18:04.589Z,57.78
2018-08-04T05:20:32.326Z,56.53
2018-08-04T05:23:00.097Z,55.21
2018-08-04T05:25:27.844Z,55.44
2018-08-04T05:27:55.609Z,55.44
2018-08-04T05:30:23.333Z,53.03
2018-08-04T05:32:51.140Z,52.67
2018-08-04T05:35:18.884Z,52.67
2018-08-04T05:37:46.652Z,51.11
2018-08-04T05:40:14.442Z,51.09
2018-08-04T05:42:42.198Z,50.98
2018-08-04T05:45:10.141Z,52.10
2018-08-04T05:47:38.336Z,51.10
2018-08-04T05:50:06.706Z,50.29
2018-08-04T05:52:34.441Z,50.09
2018-08-04T05:55:02.203Z,48.23
2018-08-04T05:57:29.924Z,48.30
2018-08-04T05:59:57.655Z,48.77
2018-08-04T06:02:25.522Z,46.57
2018-08-04T06:04:53.257Z,47.81
2018-08-04T06:07:20.977Z,45.58
2018-08-04T06:09:48.792Z,47.24
2018-08-04T06:12:16.511Z,45.39
2018-08-04T06:14:44.308Z,47.02
2018-08-04T06:17:12.078Z,47.85
2018-08-04T06:19:39.817Z,43.27
2018-08-04T06:22:07.627Z,45.49
2018-08-04T06:24:35.336Z,44.27
2018-08-04T06:27:03.164Z,42.68
2018-08-04T06:29:31.001Z,44.36
2018-08-04T06:31:58.720Z,44.32
2018-08-04T06:34:26.438Z,42.91
2018-08-04T06:36:54.201Z,43.23
2018-08-04T06:39:21.956Z,42.74
2018-08-04T06:41:49.725Z,40.55
2018-08-04T06:44:17.435Z,42.19
2018-08-04T06:46:45.180Z,42.19
2018-08-04T06:49:12.940Z,42.43
2018-08-04T06:51:40.667Z,42.19
2018-08-04T06:54:08.524Z,40.68
2018-08-04T06:56:36.303Z,41.67
2018-08-04T06:59:04.148Z,41.49
2018-08-04T07:01:32.131Z,42.79
2018-08-04T07:03:59.901Z,43.27
2018-08-04T07:06:28.484Z,40.92
2018-08-04T07:08:56.216Z,42.90
2018-08-04T07:11:23.975Z,43.33
2018-08-04T07:13:51.678Z,43.26
2018-08-04T07:16:19.440Z,45.70
2018-08-04T07:18:47.183Z,45.73
2018-08-04T07:21:14.904Z,47.01
2018-08-04T07:23:42.711Z,47.03
2018-08-04T07:26:10.516Z,47.42
2018-08-04T07:28:38.254Z,46.04
2018-08-04T07:31:06.223Z,47.17
2018-08-04T07:33:34.001Z,45.34
2018-08-04T07:36:01.696Z,43.80
2018-08-04T07:38:29.448Z,43.34
2018-08-04T07:40:57.252Z,41.73
2018-08-04T07:43:24.940Z,39.25
2018-08-04T07:45:52.704Z,38.30
2018-08-04T07:48:20.429Z,38.49
2018-08-04T07:50:48.248Z,38.61
2018-08-04T07:53:15.984Z,37.31
2018-08-04T07:55:43.740Z,39.60
2018-08-04T07:58:11.478Z,38.06
2018-08-04T08:00:39.162Z,36.20
2018-08-04T08:03:06.913Z,37.64
2018-08-04T08:05:34.720Z,36.89
2018-08-04T08:08:02.492Z,37.29
2018-08-04T08:10:30.323Z,37.20
2018-08-04T08:12:57.976Z,34.28
2018-08-04T08:15:25.700Z,36.83
2018-08-04T08:17:53.435Z,35.63
2018-08-04T08:20:21.208Z,33.49
2018-08-04T08:22:48.992Z,33.90
2018-08-04T08:25:16.722Z,34.04
2018-08-04T08:27:44.439Z,35.95
2018-08-04T08:30:14.500Z,35.39
2018-08-04T08:32:42.339Z,35.27
2018-08-04T08:35:10.629Z,36.86
2018-08-04T08:37:38.466Z,35.60
2018-08-04T08:40:06.847Z,35.80
2018-08-04T08:42:34.645Z,33.64
2018-08-04T08:45:02.495Z,34.30
2018-08-04T08:47:30.209Z,34.25
2018-08-04T08:49:57.982Z,33.10
2018-08-04T08:52:25.716Z,35.24
2018-08-04T08:54:53.538Z,36.84
2018-08-04T08:57:21.305Z,36.40
2018-08-04T08:59:49.091Z,37.74
2018-08-04T09:02:16.880Z,37.32
2018-08-04T09:04:44.629Z,37.87
2018-08-04T09:07:12.469Z,35.71
2018-08-04T09:09:40.272Z,35.67
2018-08-04T09:12:08.025Z,36.55
2018-08-04T09:14:35.820Z,34.91
2018-08-04T09:17:03.561Z,33.84
2018-08-04T09:19:31.536Z,32.32
2018-08-04T09:21:59.410Z,33.54
2018-08-04T09:24:27.168Z,35.28
2018-08-04T09:26:54.889Z,35.77
2018-08-04T09:29:22.633Z,34.49
2018-08-04T09:31:50.388Z,34.75
2018-08-04T09:34:18.139Z,34.20
2018-08-04T09:36:45.847Z,33.71
2018-08-04T09:39:13.769Z,32.67
2018-08-04T09:41:42.009Z,34.14
2018-08-04T09:44:10.332Z,34.21
2018-08-04T09:46:39.163Z,33.52
2018-08-04T09:49:07.024Z,34.04
2018-08-04T09:51:34.837Z,30.82
2018-08-04T09:54:02.605Z,31.56
2018-08-04T09:56:30.338Z,32.35
2018-08-04T09:58:58.072Z,30.89
2018-08-04T10:01:31.268Z,29.65
2018-08-04T10:03:59.091Z,32.06
2018-08-04T10:06:26.896Z,31.05
2018-08-04T10:08:54.635Z,30.99
2018-08-04T10:11:22.546Z,29.36
2018-08-04T10:13:50.319Z,30.54
2018-08-04T10:16:18.062Z,31.40
2018-08-04T10:18:45.824Z,31.41
2018-08-04T10:21:13.543Z,30.77
2018-08-04T10:23:41.276Z,30.06
2018-08-04T10:26:09.069Z,31.47
2018-08-04T10:28:36.836Z,30.78
2018-08-04T10:31:04.557Z,31.71
2018-08-04T10:33:32.272Z,30.55
2018-08-04T10:36:00.057Z,31.00
2018-08-04T10:38:27.875Z,31.72
2018-08-04T10:40:55.620Z,30.35
2018-08-04T10:43:23.410Z,32.69
2018-08-04T10:45:51.290Z,34.56
2018-08-04T10:48:19.021Z,33.44
2018-08-04T10:50:46.774Z,31.23
2018-08-04T10:53:14.580Z,32.31
2018-08-04T10:55:42.289Z,32.73
2018-08-04T10:58:10.008Z,32.58
2018-08-04T11:00:37.969Z,32.06
2018-08-04T11:03:05.767Z,31.94
2018-08-04T11:05:33.532Z,30.45
2018-08-04T11:08:01.301Z,32.80
2018-08-04T11:10:29.012Z,33.27
2018-08-04T11:12:56.775Z,32.58
2018-08-04T11:15:24.564Z,31.66
2018-08-04T11:17:52.352Z,31.86
2018-08-04T11:20:20.155Z,34.16
2018-08-04T11:22:47.900Z,31.85
2018-08-04T11:25:15.605Z,34.83
2018-08-04T11:27:43.317Z,35.20
2018-08-04T11:30:11.028Z,32.01
2018-08-04T11:32:38.761Z,32.13
2018-08-04T11:35:06.562Z,32.14
2018-08-04T11:37:34.368Z,32.27
2018-08-04T11:40:02.124Z,32.25
2018-08-04T11:42:29.864Z,32.18
2018-08-04T11:44:57.623Z,33.61
2018-08-04T11:47:25.356Z,31.48
2018-08-04T11:49:53.064Z,32.19
2018-08-04T11:52:20.773Z,30.21
2018-08-04T11:54:48.507Z,32.24
2018-08-04T11:57:16.283Z,32.17
2018-08-04T11:59:44.013Z,31.69
2018-08-04T12:02:11.743Z,31.39
2018-08-04T12:04:39.525Z,32.32
2018-08-04T12:07:07.236Z,30.93
2018-08-04T12:09:34.944Z,32.18
2018-08-04T12:12:02.813Z,32.58
2018-08-04T12:14:30.553Z,29.92
2018-08-04T12:16:58.332Z,31.71
2018-08-04T12:19:26.085Z,31.99
2018-08-04T12:21:53.880Z,33.46
2018-08-04T12:24:21.610Z,32.29
2018-08-04T12:26:49.348Z,33.08
2018-08-04T12:29:17.161Z,32.41
2018-08-04T12:31:44.864Z,32.69
2018-08-04T12:34:12.581Z,32.68
2018-08-04T12:36:40.315Z,33.70
2018-08-04T12:39:09.713Z,32.39
2018-08-04T12:41:37.490Z,33.58
2018-08-04T12:44:06.144Z,35.68
2018-08-04T12:46:33.892Z,33.98
2018-08-04T12:49:01.653Z,35.47
2018-08-04T12:51:29.507Z,34.56
2018-08-04T12:53:57.255Z,33.69
2018-08-04T12:56:24.976Z,33.93
2018-08-04T12:58:52.727Z,33.72
2018-08-04T13:01:20.432Z,34.22
2018-08-04T13:03:48.186Z,35.36
2018-08-04T13:06:15.995Z,37.34
2018-08-04T13:08:43.765Z,34.57
2018-08-04T13:11:11.532Z,36.91
2018-08-04T13:13:39.336Z,38.04
2018-08-04T13:16:07.213Z,36.63
2018-08-04T13:18:34.980Z,34.54
2018-08-04T13:21:02.699Z,36.81
2018-08-04T13:23:30.432Z,37.42
2018-08-04T13:25:58.145Z,36.24
2018-08-04T13:28:25.900Z,36.66
2018-08-04T13:30:53.631Z,34.33
2018-08-04T13:33:21.494Z,36.15
2018-08-04T13:35:49.231Z,36.54
2018-08-04T13:38:16.979Z,36.91
2018-08-04T13:40:44.768Z,36.19
2018-08-04T13:43:12.508Z,37.77
2018-08-04T13:45:40.216Z,37.41
2018-08-04T13:48:07.956Z,37.26
2018-08-04T13:50:35.657Z,37.00
2018-08-04T13:53:03.357Z,37.71
2018-08-04T13:55:31.153Z,37.77
2018-08-04T13:57:58.871Z,37.59
2018-08-04T14:00:26.632Z,38.03
2018-08-04T14:02:54.420Z,38.34
2018-08-04T14:05:22.169Z,37.07
2018-08-04T14:07:49.889Z,37.14
2018-08-04T14:10:17.597Z,36.20
2018-08-04T14:12:45.498Z,36.00
2018-08-04T14:15:13.251Z,36.37
2018-08-04T14:17:41.043Z,36.32
2018-08-04T14:20:08.857Z,36.44
2018-08-04T14:22:36.645Z,38.61
2018-08-04T14:25:04.440Z,38.24
2018-08-04T14:27:32.220Z,39.28
2018-08-04T14:30:00.141Z,40.16
2018-08-04T14:32:27.896Z,39.87
2018-08-04T14:34:55.686Z,39.96
2018-08-04T14:37:23.434Z,40.46
2018-08-04T14:39:51.681Z,37.30
2018-08-04T14:42:19.455Z,39.56
2018-08-04T14:44:47.175Z,38.57
2018-08-04T14:47:14.900Z,39.98
2018-08-04T14:49:42.669Z,40.07
2018-08-04T14:52:10.413Z,38.33
2018-08-04T14:54:38.112Z,39.54
2018-08-04T14:57:05.843Z,41.28
2018-08-04T14:59:33.621Z,39.78
2018-08-04T15:02:01.336Z,41.50
2018-08-04T15:04:29.058Z,39.47
2018-08-04T15:06:56.859Z,37.39
2018-08-04T15:09:24.640Z,37.63
2018-08-04T15:11:52.349Z,38.72
2018-08-04T15:14:20.133Z,38.41
2018-08-04T15:16:47.880Z,39.65
2018-08-04T15:19:15.599Z,38.36
2018-08-04T15:21:43.337Z,38.67
2018-08-04T15:24:11.102Z,38.30
2018-08-04T15:26:38.810Z,37.86
2018-08-04T15:29:06.641Z,37.59
2018-08-04T15:31:34.344Z,36.93
2018-08-04T15:34:02.160Z,38.28
2018-08-04T15:36:29.932Z,38.41
2018-08-04T15:38:57.646Z,37.25
2018-08-04T15:41:25.396Z,39.82
2018-08-04T15:43:53.156Z,38.52
2018-08-04T15:46:20.893Z,41.20
2018-08-04T15:48:48.595Z,39.18
2018-08-04T15:51:16.364Z,40.11
2018-08-04T15:53:44.117Z,41.38
2018-08-04T15:56:11.924Z,41.39
2018-08-04T15:58:39.648Z,38.20
2018-08-04T16:01:07.424Z,38.44
2018-08-04T16:03:35.248Z,36.61
2018-08-04T16:06:03.018Z,40.67
2018-08-04T16:08:30.890Z,39.61
2018-08-04T16:10:58.635Z,40.37
2018-08-04T16:13:26.485Z,39.93
2018-08-04T16:15:54.236Z,37.46
2018-08-04T16:18:21.984Z,37.68
2018-08-04T16:20:49.713Z,39.41
2018-08-04T16:23:17.508Z,37.11
2018-08-04T16:25:45.204Z,39.47
2018-08-04T16:28:12.936Z,38.95
2018-08-04T16:30:40.681Z,38.14
2018-08-04T16:33:08.396Z,40.40
2018-08-04T16:35:36.181Z,40.61
2018-08-04T16:38:03.954Z,41.11
2018-08-04T16:40:31.672Z,42.04
2018-08-04T16:42:59.396Z,40.43
2018-08-04T16:45:27.140Z,41.71
2018-08-04T16:47:54.946Z,40.78
2018-08-04T16:50:22.681Z,41.05
2018-08-04T16:52:50.428Z,41.51
2018-08-04T16:55:18.188Z,40.06
2018-08-04T16:57:45.895Z,42.85
2018-08-04T17:00:13.628Z,43.26
2018-08-04T17:02:41.411Z,43.00
2018-08-04T17:05:09.243Z,44.48
2018-08-04T17:07:36.974Z,44.98
2018-08-04T17:10:04.990Z,45.38
2018-08-04T17:12:32.742Z,44.08
2018-08-04T17:15:00.465Z,45.71
2018-08-04T17:17:28.244Z,46.80
2018-08-04T17:19:56.030Z,47.59
2018-08-04T17:22:23.850Z,47.93
2018-08-04T17:24:51.581Z,45.99
2018-08-04T17:27:19.333Z,44.43
2018-08-04T17:29:47.057Z,46.55
2018-08-04T17:32:14.765Z,46.30
2018-08-04T17:34:42.524Z,47.69
2018-08-04T17:37:10.261Z,48.08
2018-08-04T17:39:37.992Z,48.10
2018-08-04T17:42:05.979Z,48.90
2018-08-04T17:44:33.807Z,50.20
2018-08-04T17:47:01.482Z,49.99
2018-08-04T17:49:29.251Z,51.07
2018-08-04T17:51:57.051Z,51.80
2018-08-04T17:54:24.777Z,51.86
2018-08-04T17:56:52.547Z,51.92
2018-08-04T17:59:20.340Z,52.93
2018-08-04T18:01:48.080Z,52.94
2018-08-04T18:04:15.848Z,53.16
2018-08-04T18:06:43.576Z,53.27
2018-08-04T18:09:11.318Z,54.40
2018-08-04T18:11:40.312Z,55.89
2018-08-04T18:14:08.076Z,56.32
2018-08-04T18:16:36.104Z,57.91
2018-08-04T18:19:04.000Z,58.99
2018-08-04T18:21:32.021Z,59.16
2018-08-04T18:23:59.907Z,58.01
2018-08-04T18:26:27.693Z,58.16
2018-08-04T18:28:55.408Z,59.84
2018-08-04T18:31:23.136Z,59.79
2018-08-04T18:33:50.895Z,60.07
2018-08-04T18:36:18.617Z,59.69
2018-08-04T18:38:46.413Z,59.42
2018-08-04T18:41:14.152Z,59.98
2018-08-04T18:43:41.884Z,59.73
2018-08-04T18:46:09.698Z,60.68
2018-08-04T18:48:37.481Z,60.83
2018-08-04T18:51:05.278Z,61.34
2018-08-04T18:53:33.089Z,62.10
2018-08-04T18:56:00.849Z,61.75
2018-08-04T18:58:28.619Z,63.06
2018-08-04T19:00:56.408Z,63.78
2018-08-04T19:03:24.172Z,64.01
2018-08-04T19:05:51.932Z,63.95
2018-08-04T19:08:19.705Z,63.95
2018-08-04T19:10:47.460Z,64.21
2018-08-04T19:13:15.185Z,64.66
2018-08-04T19:15:42.959Z,64.38
2018-08-04T19:18:11.096Z,64.67
2018-08-04T19:20:38.920Z,65.77
2018-08-04T19:23:06.693Z,66.24
2018-08-04T19:25:34.432Z,66.72
2018-08-04T19:28:02.208Z,66.28
2018-08-04T19:30:29.908Z,66.38
2018-08-04T19:32:57.712Z,66.73
2018-08-04T19:35:25.501Z,66.77
2018-08-04T19:37:53.244Z,67.17
2018-08-04T19:40:20.979Z,67.22
2018-08-04T19:42:48.777Z,67.47
2018-08-04T19:45:16.525Z,67.48
2018-08-04T19:47:44.270Z,67.86
2018-08-04T19:50:12.064Z,67.90
2018-08-04T19:52:39.820Z,68.42
2018-08-04T19:55:07.549Z,68.47
2018-08-04T19:57:35.284Z,68.46
2018-08-04T20:00:03.175Z,68.65
2018-08-04T20:02:30.993Z,69.45
2018-08-04T20:04:58.761Z,69.82
2018-08-04T20:07:26.501Z,69.77
2018-08-04T20:09:54.680Z,69.44
2018-08-04T20:12:22.383Z,69.68
2018-08-04T20:14:50.223Z,70.90
2018-08-04T20:17:17.999Z,70.46
2018-08-04T20:19:45.891Z,70.30
2018-08-04T20:22:16.068Z,70.46
2018-08-04T20:24:44.230Z,69.88
2018-08-04T20:27:12.028Z,70.04
2018-08-04T20:29:39.791Z,70.58
2018-08-04T20:32:07.897Z,70.81
2018-08-04T20:34:35.629Z,70.96
2018-08-04T20:37:03.419Z,71.70
2018-08-04T20:39:31.215Z,71.05
2018-08-04T20:41:59.055Z,71.23
2018-08-04T20:44:26.777Z,71.15
2018-08-04T20:46:54.826Z,71.47
2018-08-04T20:49:22.544Z,71.18
2018-08-04T20:51:50.680Z,71.28
2018-08-04T20:54:18.832Z,71.00
2018-08-04T20:56:46.582Z,70.90
2018-08-04T20:59:15.328Z,70.67
2018-08-04T21:01:49.174Z,70.67
2018-08-04T21:04:17.051Z,70.64
2018-08-04T21:06:44.793Z,71.15
2018-08-04T21:09:12.588Z,71.08
2018-08-04T21:11:49.798Z,71.02
2018-08-04T21:14:18.192Z,71.05
2018-08-04T21:16:46.317Z,71.26
2018-08-04T21:19:14.089Z,71.56
2018-08-04T21:21:42.212Z,71.78
2018-08-04T21:24:09.991Z,71.63
2018-08-04T21:26:37.812Z,72.08
2018-08-04T21:29:06.117Z,71.91
2018-08-04T21:31:34.037Z,72.43
2018-08-04T21:34:02.034Z,72.60
2018-08-04T21:36:30.672Z,73.20
2018-08-04T21:38:58.488Z,73.16
2018-08-04T21:41:26.568Z,72.91
2018-08-04T21:43:54.340Z,73.38
2018-08-04T21:46:22.633Z,72.99
2018-08-04T21:48:50.572Z,73.21
2018-08-04T21:51:18.418Z,73.30
2018-08-04T21:53:46.217Z,73.19
2018-08-04T21:56:13.959Z,73.00
2018-08-04T21:58:41.737Z,72.62
2018-08-04T22:01:13.447Z,72.68
2018-08-04T22:03:42.555Z,73.11
2018-08-04T22:06:10.321Z,72.63
2018-08-04T22:08:49.312Z,72.94
2018-08-04T22:11:17.289Z,73.39
2018-08-04T22:13:45.965Z,73.44
2018-08-04T22:16:13.827Z,73.39
2018-08-04T22:18:42.255Z,73.57
2018-08-04T22:21:09.977Z,74.17
2018-08-04T22:23:37.776Z,73.80
2018-08-04T22:26:05.601Z,74.08
2018-08-04T22:28:33.313Z,73.54
2018-08-04T22:31:01.044Z,73.54
2018-08-04T22:33:28.854Z,73.38
2018-08-04T22:35:56.605Z,73.54
2018-08-04T22:38:24.339Z,74.04
2018-08-04T22:40:52.147Z,74.12
2018-08-04T22:43:19.868Z,74.80
2018-08-04T22:46:10.941Z,74.25
2018-08-04T22:48:38.755Z,74.15
2018-08-04T22:51:06.508Z,74.26
2018-08-04T22:53:34.652Z,74.65
2018-08-04T22:56:02.466Z,74.42
2018-08-04T22:58:30.202Z,74.18
2018-08-04T23:00:58.044Z,74.76
2018-08-04T23:03:25.788Z,74.65
2018-08-04T23:05:53.709Z,74.08
2018-08-04T23:08:21.458Z,74.06
2018-08-04T23:10:49.175Z,73.83
2018-08-04T23:13:17.300Z,75.06
2018-08-04T23:15:45.115Z,74.64
2018-08-04T23:18:12.976Z,74.49
2018-08-04T23:20:40.862Z,74.77
2018-08-04T23:23:09.905Z,74.99
2018-08-04T23:25:37.647Z,75.22
2018-08-04T23:28:05.453Z,74.43
2018-08-04T23:30:33.251Z,74.30
2018-08-04T23:33:00.991Z,74.90
2018-08-04T23:35:28.711Z,74.79
2018-08-04T23:37:56.572Z,75.13
2018-08-04T23:40:24.333Z,74.54
2018-08-04T23:42:52.093Z,74.92
2018-08-04T23:45:20.035Z,74.60
2018-08-04T23:47:47.839Z,74.68
2018-08-04T23:50:15.742Z,74.42
2018-08-04T23:52:43.498Z,74.68
2018-08-04T23:55:11.253Z,75.39
2018-08-04T23:57:39.176Z,75.26
